createdAt,value
2024-02-02T00:01:53.692Z,3.98
2024-02-02T00:04:21.697Z,4.01
2024-02-02T00:06:49.893Z,4.00
2024-02-02T00:09:18.132Z,4.04
2024-02-02T00:11:47.898Z,4.08
2024-02-02T00:14:16.296Z,4.06
2024-02-02T00:16:44.512Z,4.03
2024-02-02T00:19:12.671Z,4.02
2024-02-02T00:21:40.797Z,4.03
2024-02-02T00:24:09.301Z,4.02
2024-02-02T00:26:37.319Z,4.14
2024-02-02T00:29:06.660Z,4.24
2024-02-02T00:31:34.616Z,4.27
2024-02-02T00:34:02.880Z,4.21
2024-02-02T00:36:31.016Z,4.24
2024-02-02T00:38:59.077Z,4.14
2024-02-02T00:41:27.132Z,4.01
2024-02-02T00:43:55.155Z,3.85
2024-02-02T00:46:24.565Z,3.74
2024-02-02T00:48:52.884Z,3.62
2024-02-02T00:51:21.002Z,3.54
2024-02-02T00:53:49.028Z,3.48
2024-02-02T00:56:17.201Z,3.43
2024-02-02T00:58:45.200Z,3.32
2024-02-02T01:01:13.254Z,3.34
2024-02-02T01:03:42.714Z,3.27
2024-02-02T01:06:10.838Z,3.35
2024-02-02T01:08:39.021Z,3.36
2024-02-02T01:11:07.265Z,3.36
2024-02-02T01:13:35.398Z,3.40
2024-02-02T01:16:03.631Z,3.44
2024-02-02T01:18:32.187Z,3.48
2024-02-02T01:21:01.794Z,3.53
2024-02-02T01:23:29.838Z,3.52
2024-02-02T01:25:57.806Z,3.61
2024-02-02T01:28:25.773Z,3.69
2024-02-02T01:30:53.817Z,3.72
2024-02-02T01:33:22.392Z,3.70
2024-02-02T01:35:50.965Z,3.69
2024-02-02T01:38:20.315Z,3.73
2024-02-02T01:40:48.337Z,3.82
2024-02-02T01:43:16.343Z,3.83
2024-02-02T01:45:44.521Z,3.88
2024-02-02T01:48:12.716Z,3.79
2024-02-02T01:50:40.850Z,3.80
2024-02-02T01:53:08.825Z,3.70
2024-02-02T01:55:38.581Z,3.67
2024-02-02T01:58:06.846Z,3.67
2024-02-02T02:00:34.922Z,3.53
2024-02-02T02:03:03.068Z,3.46
2024-02-02T02:05:31.325Z,3.32
2024-02-02T02:07:59.343Z,3.28
2024-02-02T02:10:27.445Z,3.33
2024-02-02T02:12:57.058Z,3.33
2024-02-02T02:15:26.401Z,3.32
2024-02-02T02:17:54.726Z,3.25
2024-02-02T02:20:23.513Z,3.17
2024-02-02T02:22:52.966Z,3.08
2024-02-02T02:25:21.001Z,2.98
2024-02-02T02:27:48.966Z,2.93
2024-02-02T02:30:16.994Z,2.89
2024-02-02T02:32:45.077Z,2.83
2024-02-02T02:35:13.394Z,2.85
2024-02-02T02:37:41.420Z,2.86
2024-02-02T02:40:12.263Z,2.80
2024-02-02T02:42:40.426Z,2.81
2024-02-02T02:45:08.785Z,2.80
2024-02-02T02:47:38.140Z,2.81
2024-02-02T02:50:07.355Z,2.82
2024-02-02T02:52:35.356Z,2.80
2024-02-02T02:55:03.446Z,2.79
2024-02-02T02:57:32.941Z,2.79
2024-02-02T03:00:01.077Z,2.81
2024-02-02T03:02:29.098Z,2.83
2024-02-02T03:04:57.086Z,2.81
2024-02-02T03:07:25.329Z,2.82
2024-02-02T03:09:53.339Z,2.85
2024-02-02T03:12:21.504Z,2.81
2024-02-02T03:14:51.010Z,2.85
2024-02-02T03:17:19.000Z,2.94
2024-02-02T03:19:47.106Z,2.98
2024-02-02T03:22:15.152Z,2.98
2024-02-02T03:24:43.179Z,2.98
2024-02-02T03:27:11.222Z,2.96
2024-02-02T03:29:39.232Z,2.96
2024-02-02T03:32:08.709Z,3.06
2024-02-02T03:34:36.905Z,3.10
2024-02-02T03:37:05.171Z,2.96
2024-02-02T03:39:34.235Z,3.11
2024-02-02T03:42:02.342Z,3.16
2024-02-02T03:44:30.562Z,3.16
2024-02-02T03:46:58.536Z,3.16
2024-02-02T03:49:27.896Z,3.19
2024-02-02T03:51:55.995Z,3.24
2024-02-02T03:54:24.085Z,3.22
2024-02-02T03:56:52.137Z,3.17
2024-02-02T03:59:20.163Z,3.27
2024-02-02T04:01:48.132Z,3.36
2024-02-02T04:04:16.420Z,3.51
2024-02-02T04:06:45.877Z,3.64
2024-02-02T04:09:13.925Z,3.83
2024-02-02T04:11:42.256Z,3.95
2024-02-02T04:14:10.258Z,4.13
2024-02-02T04:16:38.200Z,4.34
2024-02-02T04:19:06.314Z,4.43
2024-02-02T04:21:34.374Z,4.60
2024-02-02T04:24:03.770Z,4.76
2024-02-02T04:26:31.944Z,5.06
2024-02-02T04:28:59.902Z,5.15
2024-02-02T04:31:27.895Z,5.21
2024-02-02T04:33:56.056Z,5.38
2024-02-02T04:36:24.204Z,5.35
2024-02-02T04:38:52.238Z,5.48
2024-02-02T04:41:21.671Z,5.45
2024-02-02T04:43:49.789Z,5.50
2024-02-02T04:46:18.561Z,5.48
2024-02-02T04:48:46.887Z,5.59
2024-02-02T04:51:14.046Z,5.66
2024-02-02T04:53:42.203Z,5.71
2024-02-02T04:56:10.171Z,5.90
2024-02-02T04:58:39.578Z,6.00
2024-02-02T05:01:07.611Z,6.08
2024-02-02T05:03:35.677Z,6.12
2024-02-02T05:06:03.774Z,6.25
2024-02-02T05:08:31.879Z,6.25
2024-02-02T05:10:59.871Z,6.28
2024-02-02T05:13:27.886Z,6.34
2024-02-02T05:15:59.631Z,6.40
2024-02-02T05:18:27.708Z,6.42
2024-02-02T05:20:55.913Z,6.45
2024-02-02T05:23:24.933Z,6.52
2024-02-02T05:25:52.933Z,6.50
2024-02-02T05:28:20.947Z,6.48
2024-02-02T05:30:48.974Z,6.60
2024-02-02T05:33:18.625Z,6.64
2024-02-02T05:35:46.718Z,6.69
2024-02-02T05:38:14.702Z,6.73
2024-02-02T05:40:42.728Z,6.77
2024-02-02T05:43:12.050Z,6.82
2024-02-02T05:45:40.101Z,6.94
2024-02-02T05:48:09.358Z,7.12
2024-02-02T05:50:38.795Z,7.24
2024-02-02T05:53:06.904Z,7.28
2024-02-02T05:55:34.850Z,7.34
2024-02-02T05:58:02.827Z,7.35
2024-02-02T06:00:30.900Z,7.38
2024-02-02T06:02:58.887Z,7.45
2024-02-02T06:05:26.878Z,7.42
2024-02-02T06:07:56.218Z,7.53
2024-02-02T06:10:24.259Z,7.47
2024-02-02T06:12:52.268Z,7.44
2024-02-02T06:15:20.292Z,7.50
2024-02-02T06:20:16.360Z,7.57
2024-02-02T06:22:44.960Z,7.65
2024-02-02T06:25:14.492Z,7.52
2024-02-02T06:27:42.588Z,7.51
2024-02-02T06:30:11.368Z,7.52
2024-02-02T06:32:40.976Z,7.45
2024-02-02T06:35:09.562Z,7.49
2024-02-02T06:37:37.546Z,7.48
2024-02-02T06:40:06.418Z,7.66
2024-02-02T06:42:35.960Z,7.71
2024-02-02T06:45:04.259Z,7.62
2024-02-02T06:47:32.710Z,7.42
2024-02-02T06:50:00.849Z,7.28
2024-02-02T06:52:29.292Z,7.19
2024-02-02T06:54:57.250Z,7.11
2024-02-02T06:57:26.409Z,7.02
2024-02-02T06:59:56.841Z,6.99
2024-02-02T07:02:25.765Z,6.88
2024-02-02T07:04:55.007Z,6.84
2024-02-02T07:07:23.063Z,6.68
2024-02-02T07:09:52.810Z,6.65
2024-02-02T07:12:44.179Z,6.71
2024-02-02T07:15:16.366Z,6.68
2024-02-02T07:17:46.036Z,6.65
2024-02-02T07:20:36.371Z,6.68
2024-02-02T07:23:05.082Z,6.70
2024-02-02T07:25:37.116Z,6.75
2024-02-02T07:28:06.143Z,6.71
2024-02-02T07:30:55.629Z,6.74
2024-02-02T07:33:25.672Z,6.81
2024-02-02T07:35:54.010Z,6.90
2024-02-02T07:38:53.679Z,6.87
2024-02-02T07:41:24.584Z,6.87
2024-02-02T07:43:52.723Z,6.90
2024-02-02T07:46:24.124Z,6.69
2024-02-02T07:48:53.249Z,6.57
2024-02-02T07:51:23.509Z,6.55
2024-02-02T07:53:51.769Z,6.59
2024-02-02T07:56:21.790Z,6.63
2024-02-02T07:58:49.778Z,6.65
2024-02-02T08:01:17.981Z,6.68
2024-02-02T08:03:48.178Z,6.62
2024-02-02T08:06:16.305Z,6.65
2024-02-02T08:08:44.393Z,6.68
2024-02-02T08:11:12.420Z,6.62
2024-02-02T08:13:40.385Z,6.65
2024-02-02T08:16:09.824Z,6.70
2024-02-02T08:18:39.773Z,6.81
2024-02-02T08:21:11.867Z,6.76
2024-02-02T08:23:39.962Z,6.68
2024-02-02T08:26:08.409Z,6.72
2024-02-02T08:28:45.302Z,6.73
2024-02-02T08:31:19.521Z,6.65
2024-02-02T08:33:47.658Z,6.72
2024-02-02T08:36:19.260Z,6.67
2024-02-02T08:38:47.399Z,6.71
2024-02-02T08:41:15.343Z,6.90
2024-02-02T08:43:43.664Z,6.90
2024-02-02T08:46:11.152Z,6.96
2024-02-02T08:48:43.362Z,6.86
2024-02-02T08:51:53.940Z,6.95
2024-02-02T08:54:38.173Z,6.79
2024-02-02T08:57:30.600Z,6.77
2024-02-02T09:00:05.780Z,6.78
2024-02-02T09:03:00.309Z,6.81
2024-02-02T09:05:30.450Z,6.78
2024-02-02T09:08:10.639Z,6.79
2024-02-02T09:11:23.153Z,6.92
2024-02-02T09:14:08.344Z,6.92
2024-02-02T09:16:44.745Z,6.93
2024-02-02T09:19:18.388Z,6.90
2024-02-02T09:21:46.388Z,6.88
2024-02-02T09:24:21.641Z,7.03
2024-02-02T09:26:49.588Z,7.08
2024-02-02T09:29:19.765Z,7.16
2024-02-02T09:31:48.092Z,7.22
2024-02-02T09:34:19.309Z,7.08
2024-02-02T09:36:47.419Z,7.03
2024-02-02T09:39:52.191Z,6.84
2024-02-02T09:43:06.361Z,6.91
2024-02-02T09:45:50.911Z,6.81
2024-02-02T09:48:27.216Z,6.80
2024-02-02T09:51:00.675Z,6.76
2024-02-02T09:53:52.006Z,6.71
2024-02-02T09:56:25.111Z,6.53
2024-02-02T09:58:55.965Z,6.56
2024-02-02T10:01:31.064Z,6.62
2024-02-02T10:04:05.860Z,6.57
2024-02-02T10:06:41.283Z,6.61
2024-02-02T10:09:18.401Z,6.67
2024-02-02T10:12:05.872Z,6.79
2024-02-02T10:15:18.337Z,6.85
2024-02-02T10:17:55.186Z,6.80
2024-02-02T10:20:27.185Z,6.79
2024-02-02T10:23:18.311Z,6.70
2024-02-02T10:25:57.869Z,6.80
2024-02-02T10:28:34.429Z,6.84
2024-02-02T10:31:12.636Z,6.89
2024-02-02T10:33:46.808Z,6.90
2024-02-02T10:36:20.223Z,6.91
2024-02-02T10:39:04.033Z,6.90
2024-02-02T10:41:36.353Z,6.91
2024-02-02T10:44:14.890Z,6.91
2024-02-02T10:46:47.308Z,6.98
2024-02-02T10:49:32.504Z,6.93
2024-02-02T10:52:05.810Z,6.80
2024-02-02T10:57:49.301Z,6.77
2024-02-02T11:00:21.449Z,6.92
2024-02-02T11:03:03.554Z,7.02
2024-02-02T11:05:36.933Z,7.07
2024-02-02T11:08:07.424Z,7.12
2024-02-02T11:10:39.191Z,6.81
2024-02-02T11:13:11.604Z,6.79
2024-02-02T11:15:47.105Z,6.87
2024-02-02T11:18:24.605Z,6.95
2024-02-02T11:20:58.504Z,6.87
2024-02-02T11:23:30.106Z,6.77
2024-02-02T11:26:01.426Z,6.71
2024-02-02T11:28:33.065Z,6.80
2024-02-02T11:31:05.161Z,6.81
2024-02-02T11:33:53.694Z,6.69
2024-02-02T11:36:30.974Z,6.70
2024-02-02T11:39:06.424Z,6.58
2024-02-02T11:41:34.990Z,6.59
2024-02-02T11:44:04.434Z,6.68
2024-02-02T11:46:34.169Z,6.60
2024-02-02T11:49:07.407Z,6.64
2024-02-02T11:51:36.834Z,6.61
2024-02-02T11:54:07.418Z,6.56
2024-02-02T11:56:37.083Z,6.59
2024-02-02T11:59:11.022Z,6.60
2024-02-02T12:01:43.946Z,6.67
2024-02-02T12:04:18.769Z,6.72
2024-02-02T12:06:51.053Z,6.78
2024-02-02T12:09:23.120Z,6.75
2024-02-02T12:11:54.471Z,6.85
2024-02-02T12:14:25.972Z,6.75
2024-02-02T12:16:53.980Z,6.80
2024-02-02T12:19:22.178Z,6.74
2024-02-02T12:21:50.235Z,6.86
2024-02-02T12:24:18.401Z,6.87
2024-02-02T12:26:49.423Z,6.87
2024-02-02T12:29:17.680Z,6.85
2024-02-02T12:31:47.106Z,6.89
2024-02-02T12:34:15.371Z,6.87
2024-02-02T12:36:43.481Z,6.87
2024-02-02T12:39:11.547Z,6.89
2024-02-02T12:41:39.539Z,6.84
2024-02-02T12:44:09.050Z,6.70
2024-02-02T12:46:44.817Z,6.79
2024-02-02T12:49:14.816Z,6.69
2024-02-02T12:51:43.273Z,6.62
2024-02-02T12:54:11.737Z,6.65
2024-02-02T12:56:40.214Z,6.69
2024-02-02T12:59:11.889Z,6.64
2024-02-02T13:01:39.872Z,6.63
2024-02-02T13:04:08.080Z,6.51
2024-02-02T13:06:37.700Z,6.51
2024-02-02T13:09:20.649Z,6.60
2024-02-02T13:11:48.956Z,6.55
2024-02-02T13:14:28.583Z,6.58
2024-02-02T13:17:10.828Z,6.66
2024-02-02T13:19:40.277Z,6.68
2024-02-02T13:22:22.751Z,6.75
2024-02-02T13:24:51.633Z,6.71
2024-02-02T13:27:20.322Z,6.73
2024-02-02T13:29:52.960Z,6.78
2024-02-02T13:32:21.644Z,6.68
2024-02-02T13:34:49.811Z,6.63
2024-02-02T13:37:30.736Z,6.54
2024-02-02T13:40:00.265Z,6.47
2024-02-02T13:42:29.720Z,6.56
2024-02-02T13:45:07.519Z,6.59
2024-02-02T13:47:37.045Z,6.60
2024-02-02T13:50:07.693Z,6.53
2024-02-02T13:52:37.176Z,6.48
2024-02-02T13:55:07.593Z,6.44
2024-02-02T13:57:35.619Z,6.42
2024-02-02T14:00:03.794Z,6.47
2024-02-02T14:02:31.865Z,6.43
2024-02-02T14:04:59.979Z,6.39
2024-02-02T14:07:28.145Z,6.45
2024-02-02T14:10:04.469Z,6.49
2024-02-02T14:12:32.823Z,6.45
2024-02-02T14:15:05.284Z,6.43
2024-02-02T14:17:34.446Z,6.46
2024-02-02T14:20:03.624Z,6.38
2024-02-02T14:22:31.627Z,6.36
2024-02-02T14:24:59.590Z,6.37
2024-02-02T14:27:35.672Z,6.33
2024-02-02T14:30:05.658Z,6.26
2024-02-02T14:32:33.763Z,6.32
2024-02-02T14:35:01.910Z,6.01
2024-02-02T14:37:29.960Z,6.22
2024-02-02T14:40:00.653Z,6.17
2024-02-02T14:42:29.892Z,6.19
2024-02-02T14:45:00.571Z,6.23
2024-02-02T14:47:28.897Z,6.20
2024-02-02T14:49:57.077Z,6.21
2024-02-02T14:52:25.125Z,6.24
2024-02-02T14:54:53.111Z,6.27
2024-02-02T14:57:21.816Z,6.31
2024-02-02T14:59:53.278Z,6.27
2024-02-02T15:02:23.127Z,6.25
2024-02-02T15:04:51.195Z,6.19
2024-02-02T15:07:19.192Z,6.19
2024-02-02T15:09:47.411Z,6.18
2024-02-02T15:12:15.546Z,6.14
2024-02-02T15:14:43.551Z,6.16
2024-02-02T15:17:11.555Z,6.13
2024-02-02T15:19:41.035Z,6.15
2024-02-02T15:22:09.063Z,6.18
2024-02-02T15:24:37.069Z,6.12
2024-02-02T15:27:05.488Z,6.07
2024-02-02T15:29:33.858Z,6.06
2024-02-02T15:32:01.941Z,6.02
2024-02-02T15:34:30.118Z,5.97
2024-02-02T15:36:59.618Z,5.93
2024-02-02T15:39:34.929Z,5.96
2024-02-02T15:42:06.794Z,5.90
2024-02-02T15:44:34.792Z,5.95
2024-02-02T15:47:04.863Z,5.84
2024-02-02T15:49:33.151Z,5.86
2024-02-02T15:52:03.681Z,5.73
2024-02-02T15:54:31.800Z,5.90
2024-02-02T15:57:00.246Z,5.89
2024-02-02T15:59:28.265Z,5.88
2024-02-02T16:01:57.809Z,5.87
2024-02-02T16:04:25.861Z,5.82
2024-02-02T16:07:04.810Z,5.85
2024-02-02T16:09:37.325Z,5.79
2024-02-02T16:12:06.332Z,5.81
2024-02-02T16:14:34.359Z,5.81
2024-02-02T16:17:02.571Z,5.67
2024-02-02T16:19:30.744Z,5.74
2024-02-02T16:21:58.854Z,5.73
2024-02-02T16:24:27.010Z,5.77
2024-02-02T16:26:56.404Z,5.76
2024-02-02T16:29:24.445Z,5.79
2024-02-02T16:31:52.505Z,5.72
2024-02-02T16:34:20.772Z,5.78
2024-02-02T16:36:49.532Z,5.76
2024-02-02T16:39:18.123Z,5.74
2024-02-02T16:41:47.360Z,5.71
2024-02-02T16:44:17.739Z,5.67
2024-02-02T16:46:46.137Z,5.64
2024-02-02T16:49:14.407Z,5.61
2024-02-02T16:51:43.270Z,5.58
2024-02-02T16:54:11.766Z,5.58
2024-02-02T16:56:40.046Z,5.56
2024-02-02T16:59:08.918Z,5.55
2024-02-02T17:01:38.619Z,5.50
2024-02-02T17:04:06.858Z,5.42
2024-02-02T17:06:35.364Z,5.42
2024-02-02T17:09:03.920Z,5.37
2024-02-02T17:11:32.100Z,5.38
2024-02-02T17:14:00.270Z,5.36
2024-02-02T17:16:28.600Z,5.34
2024-02-02T17:18:58.272Z,5.36
2024-02-02T17:21:26.495Z,5.37
2024-02-02T17:23:54.650Z,5.39
2024-02-02T17:26:23.214Z,5.38
2024-02-02T17:28:57.513Z,5.36
2024-02-02T17:31:28.550Z,5.36
2024-02-02T17:33:58.237Z,5.36
2024-02-02T17:36:26.473Z,5.36
2024-02-02T17:38:54.881Z,5.37
2024-02-02T17:41:23.323Z,5.35
2024-02-02T17:43:51.570Z,5.35
2024-02-02T17:46:20.801Z,5.32
2024-02-02T17:48:49.201Z,5.38
2024-02-02T17:51:21.282Z,5.44
2024-02-02T17:53:49.450Z,5.46
2024-02-02T17:56:18.575Z,5.51
2024-02-02T17:58:47.632Z,5.53
2024-02-02T18:01:17.193Z,5.55
2024-02-02T18:03:45.520Z,5.56
2024-02-02T18:06:14.444Z,5.59
2024-02-02T18:08:44.021Z,5.58
2024-02-02T18:11:12.952Z,5.54
2024-02-02T18:13:41.192Z,5.50
2024-02-02T18:16:11.356Z,5.53
2024-02-02T18:18:40.670Z,5.54
2024-02-02T18:21:08.801Z,5.51
2024-02-02T18:23:36.835Z,5.50
2024-02-02T18:26:06.829Z,5.53
2024-02-02T18:28:34.836Z,5.54
2024-02-02T18:31:02.886Z,5.56
2024-02-02T18:33:31.018Z,5.57
2024-02-02T18:35:59.021Z,5.53
2024-02-02T18:38:27.056Z,5.50
2024-02-02T18:40:55.090Z,5.47
2024-02-02T18:43:24.468Z,5.42
2024-02-02T18:45:52.454Z,5.44
2024-02-02T18:48:24.777Z,5.41
2024-02-02T18:50:52.950Z,5.43
2024-02-02T18:53:20.984Z,5.39
2024-02-02T18:55:50.404Z,5.39
2024-02-02T18:58:20.329Z,5.40
2024-02-02T19:00:50.150Z,5.42
2024-02-02T19:03:18.380Z,5.42
2024-02-02T19:05:48.052Z,5.39
2024-02-02T19:08:16.082Z,5.40
2024-02-02T19:10:45.736Z,5.38
2024-02-02T19:13:13.926Z,5.39
2024-02-02T19:15:41.919Z,5.37
2024-02-02T19:18:11.826Z,5.37
2024-02-02T19:20:41.108Z,5.35
2024-02-02T19:23:09.107Z,5.33
2024-02-02T19:25:37.052Z,5.34
2024-02-02T19:28:07.484Z,5.26
2024-02-02T19:30:35.556Z,5.17
2024-02-02T19:33:03.817Z,5.23
2024-02-02T19:35:33.278Z,5.20
2024-02-02T19:38:01.248Z,5.16
2024-02-02T19:40:29.270Z,5.12
2024-02-02T19:42:57.397Z,5.06
2024-02-02T19:45:25.420Z,5.01
2024-02-02T19:47:53.537Z,4.97
2024-02-02T19:50:21.538Z,4.94
2024-02-02T19:52:50.847Z,4.96
2024-02-02T19:55:18.863Z,4.96
2024-02-02T19:57:46.932Z,4.96
2024-02-02T20:00:16.038Z,4.97
2024-02-02T20:02:47.027Z,4.93
2024-02-02T20:05:15.267Z,4.86
2024-02-02T20:07:43.617Z,4.90
2024-02-02T20:10:13.242Z,4.92
2024-02-02T20:12:41.352Z,4.88
2024-02-02T20:15:09.867Z,4.90
2024-02-02T20:17:38.108Z,4.90
2024-02-02T20:20:08.626Z,4.92
2024-02-02T20:22:36.919Z,4.93
2024-02-02T20:25:05.516Z,4.91
2024-02-02T20:27:34.934Z,4.89
2024-02-02T20:30:03.009Z,4.84
2024-02-02T20:32:31.097Z,4.80
2024-02-02T20:34:59.365Z,4.69
2024-02-02T20:37:27.405Z,4.68
2024-02-02T20:39:55.442Z,4.65
2024-02-02T20:42:23.478Z,4.66
2024-02-02T20:44:52.869Z,4.65
2024-02-02T20:47:20.937Z,4.65
2024-02-02T20:49:49.048Z,4.65
2024-02-02T20:52:17.615Z,4.61
2024-02-02T20:54:45.800Z,4.62
2024-02-02T20:57:13.892Z,4.56
2024-02-02T20:59:42.395Z,4.52
2024-02-02T21:02:11.790Z,4.52
2024-02-02T21:04:39.884Z,4.51
2024-02-02T21:07:11.404Z,4.51
2024-02-02T21:09:39.571Z,4.49
2024-02-02T21:12:08.773Z,4.51
2024-02-02T21:14:36.827Z,4.57
2024-02-02T21:17:04.938Z,4.62
2024-02-02T21:19:34.384Z,4.63
2024-02-02T21:22:07.008Z,4.62
2024-02-02T21:24:35.377Z,4.62
2024-02-02T21:27:04.754Z,4.65
2024-02-02T21:29:32.767Z,4.72
2024-02-02T21:32:00.777Z,4.70
2024-02-02T21:34:30.142Z,4.65
2024-02-02T21:36:59.577Z,4.70
2024-02-02T21:39:27.593Z,4.67
2024-02-02T21:41:55.938Z,4.62
2024-02-02T21:44:24.820Z,4.58
2024-02-02T21:46:53.016Z,4.46
2024-02-02T21:49:21.197Z,4.46
2024-02-02T21:51:49.371Z,4.42
2024-02-02T21:54:18.864Z,4.37
2024-02-02T21:56:47.030Z,4.31
2024-02-02T21:59:15.104Z,4.19
2024-02-02T22:01:43.165Z,4.17
2024-02-02T22:04:13.073Z,4.09
2024-02-02T22:06:41.348Z,3.97
2024-02-02T22:09:09.682Z,3.88
2024-02-02T22:11:39.201Z,3.79
2024-02-02T22:14:07.224Z,3.71
2024-02-02T22:16:35.178Z,3.62
2024-02-02T22:19:03.689Z,3.55
2024-02-02T22:21:31.987Z,3.47
2024-02-02T22:24:00.079Z,3.44
2024-02-02T22:26:28.374Z,3.34
2024-02-02T22:28:58.198Z,3.24
2024-02-02T22:31:26.191Z,3.17
2024-02-02T22:33:54.300Z,3.10
2024-02-02T22:36:25.550Z,2.99
2024-02-02T22:38:53.900Z,2.87
2024-02-02T22:41:32.139Z,2.73
2024-02-02T22:44:03.561Z,2.61
2024-02-02T22:46:31.973Z,2.50
2024-02-02T22:49:00.184Z,2.46
2024-02-02T22:51:28.354Z,2.49
2024-02-02T22:53:56.360Z,2.56
2024-02-02T22:56:24.387Z,2.61
2024-02-02T22:58:52.422Z,2.62
2024-02-02T23:01:22.392Z,2.58
2024-02-02T23:03:50.542Z,2.54
2024-02-02T23:06:18.720Z,2.47
2024-02-02T23:08:47.132Z,2.42
2024-02-02T23:11:15.944Z,2.39
2024-02-02T23:13:43.914Z,2.36
2024-02-02T23:16:12.376Z,2.29
2024-02-02T23:18:42.038Z,2.24
2024-02-02T23:21:10.258Z,2.17
2024-02-02T23:23:39.223Z,2.15
2024-02-02T23:26:07.253Z,2.13
2024-02-02T23:28:35.289Z,2.08
2024-02-02T23:31:03.947Z,2.09
2024-02-02T23:33:32.214Z,2.08
2024-02-02T23:36:01.708Z,2.06
2024-02-02T23:38:29.710Z,1.91
2024-02-02T23:40:57.876Z,2.00
2024-02-02T23:43:26.190Z,2.02
2024-02-02T23:45:54.426Z,2.01
2024-02-02T23:48:22.526Z,2.06
2024-02-02T23:50:50.569Z,2.06
2024-02-02T23:53:20.768Z,2.05
2024-02-02T23:55:48.785Z,2.13
2024-02-02T23:58:16.849Z,2.25
